Time;durP1;ratioP1;P1;durP2;ratioP2;P2;SDS_P1;SDS_P2;PMS_P1;PMS_P2;Temp;Humidity;BMP_temperature;BMP_pressure;BME280_temperature;BME280_humidity;BME280_pressure;Samples;Min_cycle;Max_cycle;Signal;HPM_P1;HPM_P2
2021/09/21 09:29:29;;;;;;;12.25;7.70;;;15.70;99.90;;;;;;11950545;28;20269;-64
2021/09/21 09:50:37;;;;;;;16.40;9.07;;;16.80;99.90;;;;;;12005937;27;20492;-66
2021/09/21 10:47:04;;;;;;;17.42;12.00;;;18.00;99.90;;;;;;11894950;27;2066308;-66
2021/09/21 10:53:10;;;;;;;16.70;11.65;;;17.90;99.90;;;;;;12001826;28;20544;-65
2021/09/21 10:58:59;;;;;;;23.80;11.48;;;18.10;99.80;;;;;;11978180;28;20140;-65
2021/09/21 11:11:16;;;;;;;25.30;13.32;;;18.60;99.10;;;;;;12015682;28;20411;-66
2021/09/21 11:17:06;;;;;;;20.38;12.10;;;18.70;99.10;;;;;;12004111;28;20048;-66
2021/09/21 11:23:12;;;;;;;22.33;13.95;;;18.90;97.70;;;;;;11986349;28;20061;-66
2021/09/21 11:29:02;;;;;;;18.48;12.40;;;18.80;97.60;;;;;;11985703;28;20044;-66
2021/09/21 11:35:00;;;;;;;20.65;13.52;;;18.90;97.50;;;;;;12005381;28;20568;-66
2021/09/21 11:41:05;;;;;;;27.08;13.50;;;19.20;97.70;;;;;;11983164;28;20101;-66
2021/09/21 11:53:02;;;;;;;22.77;13.85;;;19.50;96.40;;;;;;11991278;28;20045;-67
2021/09/21 11:59:01;;;;;;;19.48;13.85;;;19.50;96.30;;;;;;11990211;28;20532;-66
2021/09/21 12:04:48;;;;;;;23.75;13.43;;;19.60;96.40;;;;;;11983939;28;20460;-67
2021/09/21 12:10:46;;;;;;;20.63;11.35;;;20.10;96.50;;;;;;11998340;28;20098;-67
2021/09/21 12:17:08;;;;;;;21.15;13.55;;;20.10;95.70;;;;;;12003122;28;20045;-67
2021/09/21 12:23:26;;;;;;;18.08;12.80;;;20.30;96.10;;;;;;11995325;28;20068;-68
2021/09/21 12:29:15;;;;;;;20.73;13.27;;;20.50;93.70;;;;;;11985692;28;20731;-67
2021/09/21 12:35:15;;;;;;;18.67;11.48;;;20.40;95.40;;;;;;11997228;28;20064;-65
2021/09/21 12:41:21;;;;;;;18.33;12.35;;;20.50;95.90;;;;;;11952712;28;20169;-65
2021/09/21 12:47:11;;;;;;;18.30;12.88;;;20.90;95.80;;;;;;11999957;28;20093;-65
2021/09/21 13:05:18;;;;;;;141.98;94.38;;;21.10;96.50;;;;;;11987360;28;20131;-65
2021/09/21 13:11:13;;;;;;;30.73;20.55;;;21.30;96.40;;;;;;12020499;28;20048;-66
2021/09/21 13:23:06;;;;;;;20.75;13.45;;;21.00;96.00;;;;;;12028210;28;20055;-66
2021/09/21 13:28:56;;;;;;;22.70;13.43;;;21.20;97.50;;;;;;12001285;28;20504;-65
2021/09/21 13:35:00;;;;;;;20.13;13.95;;;21.50;96.20;;;;;;11971618;28;20091;-66
2021/09/21 13:40:49;;;;;;;18.60;13.57;;;21.30;96.60;;;;;;11939066;28;20132;-66
2021/09/21 13:46:36;;;;;;;23.15;13.45;;;21.10;97.00;;;;;;11912475;28;20101;-66
2021/09/21 13:52:39;;;;;;;23.65;14.10;;;21.20;97.50;;;;;;11997004;28;20558;-66
2021/09/21 14:04:35;;;;;;;22.83;13.80;;;21.10;97.90;;;;;;11980694;28;20060;-65
2021/09/21 14:10:23;;;;;;;17.20;12.55;;;21.30;96.80;;;;;;11984340;28;20435;-66
2021/09/21 14:16:13;;;;;;;22.42;14.55;;;21.20;97.00;;;;;;11991672;28;20558;-66
2021/09/21 14:22:09;;;;;;;20.52;14.10;;;21.10;97.20;;;;;;12006016;28;20051;-66
2021/09/21 14:28:13;;;;;;;21.52;13.60;;;21.20;97.30;;;;;;11953297;28;20044;-66
2021/09/21 14:46:07;;;;;;;23.40;14.25;;;21.30;97.30;;;;;;12001302;28;20048;-66
2021/09/21 14:51:58;;;;;;;18.77;12.25;;;21.20;97.80;;;;;;11968517;28;20092;-66
2021/09/21 14:57:45;;;;;;;18.35;12.07;;;21.10;98.40;;;;;;11938793;28;20089;-66
2021/09/21 15:10:13;;;;;;;16.83;11.40;;;21.10;98.90;;;;;;11943527;28;20043;-67
2021/09/21 15:16:03;;;;;;;20.05;11.88;;;21.10;99.20;;;;;;11972640;28;20052;-65
2021/09/21 15:21:53;;;;;;;18.95;11.60;;;21.10;99.10;;;;;;12000924;28;20135;-67
2021/09/21 15:27:57;;;;;;;13.98;10.23;;;21.10;99.10;;;;;;11985521;28;20178;-66
2021/09/21 15:33:44;;;;;;;17.92;11.73;;;21.00;99.50;;;;;;12010769;28;20105;-66
2021/09/21 15:39:33;;;;;;;18.13;11.63;;;20.90;99.60;;;;;;11945928;28;20520;-66
2021/09/21 15:51:49;;;;;;;16.10;11.48;;;20.90;99.90;;;;;;11941535;28;20053;-66
2021/09/21 15:57:38;;;;;;;16.38;10.93;;;20.90;99.90;;;;;;11997595;28;20048;-66
2021/09/21 16:03:41;;;;;;;16.70;10.73;;;21.00;99.90;;;;;;11943623;28;20044;-66
2021/09/21 16:09:29;;;;;;;;;;;21.40;99.90;;;;;;11942837;28;20710;-66
2021/09/21 16:15:17;;;;;;;16.00;11.18;;;21.80;99.20;;;;;;11942476;28;20359;-66
2021/09/21 16:21:21;;;;;;;73.60;48.70;;;21.90;98.40;;;;;;11950181;28;20074;-65
2021/09/21 16:27:09;;;;;;;;;;;21.80;98.20;;;;;;11974829;28;20057;-65
2021/09/21 16:32:59;;;;;;;13.85;10.63;;;22.00;97.60;;;;;;11945622;28;19929;-65
2021/09/21 16:39:10;;;;;;;15.98;9.75;;;22.10;96.20;;;;;;11959457;28;20080;-65
2021/09/21 16:45:00;;;;;;;15.50;10.38;;;22.10;96.70;;;;;;11948312;28;20127;-65
2021/09/21 17:09:04;;;;;;;14.35;9.48;;;21.40;98.80;;;;;;11971888;28;20075;-67
2021/09/21 17:15:01;;;;;;;14.77;10.00;;;20.90;99.90;;;;;;11925270;28;20508;-65
2021/09/21 17:20:56;;;;;;;15.32;10.65;;;20.50;99.90;;;;;;11987570;28;20465;-65
2021/09/21 17:27:04;;;;;;;14.05;10.80;;;20.20;99.90;;;;;;11898878;28;20069;-65
2021/09/21 17:33:07;;;;;;;13.52;10.73;;;19.90;99.90;;;;;;11976260;28;20121;-65
2021/09/21 17:38:57;;;;;;;15.00;10.73;;;19.60;99.90;;;;;;11930069;28;20053;-65
2021/09/21 17:44:46;;;;;;;15.57;10.57;;;19.40;99.90;;;;;;11950728;28;20071;-64
2021/09/21 17:50:50;;;;;;;15.35;10.80;;;19.20;99.90;;;;;;11952006;28;20128;-66
2021/09/21 17:56:42;;;;;;;19.77;11.75;;;19.00;99.90;;;;;;11962039;28;20567;-66
2021/09/21 18:02:31;;;;;;;21.15;12.23;;;19.00;99.90;;;;;;11924292;28;20051;-69
2021/09/21 18:08:22;;;;;;;22.08;14.82;;;18.80;99.90;;;;;;11903405;28;20052;-66
2021/09/21 18:14:11;;;;;;;16.27;11.95;;;18.70;99.90;;;;;;11922764;28;20125;-67
2021/09/21 18:20:53;;;;;;;19.50;12.52;;;18.50;99.90;;;;;;11954050;28;20063;-66
2021/09/21 18:27:02;;;;;;;17.77;12.50;;;18.40;99.90;;;;;;11884339;28;20044;-68
2021/09/21 18:32:58;;;;;;;18.10;12.70;;;18.20;99.90;;;;;;11931336;28;20048;-66
2021/09/21 18:38:46;;;;;;;20.50;11.93;;;18.00;99.90;;;;;;12003333;28;20056;-66
2021/09/21 18:44:53;;;;;;;17.67;12.38;;;18.00;99.90;;;;;;11960838;28;20462;-66
2021/09/21 18:56:45;;;;;;;17.63;12.90;;;18.00;99.90;;;;;;11881500;28;20056;-67
2021/09/21 19:08:51;;;;;;;26.75;13.93;;;17.90;99.90;;;;;;11962955;28;20061;-66
2021/09/21 19:14:38;;;;;;;21.65;13.40;;;17.90;99.90;;;;;;12013521;28;20527;-67
2021/09/21 19:20:27;;;;;;;18.13;13.70;;;17.90;99.90;;;;;;12009124;28;20464;-64
2021/09/21 19:26:14;;;;;;;31.35;20.23;;;17.90;99.90;;;;;;12012564;28;20060;-65
2021/09/21 19:32:03;;;;;;;18.83;13.27;;;17.80;99.90;;;;;;11941062;28;20061;-65
2021/09/21 19:37:57;;;;;;;22.23;14.00;;;17.80;99.90;;;;;;11980923;28;20056;-64
2021/09/21 19:43:44;;;;;;;22.40;13.27;;;17.80;99.90;;;;;;11963725;28;20048;-65
2021/09/21 19:55:34;;;;;;;23.95;14.40;;;17.80;99.90;;;;;;11973314;28;20046;-66
2021/09/21 20:01:21;;;;;;;24.00;14.05;;;17.70;99.90;;;;;;11985397;28;21484;-67
2021/09/21 20:07:08;;;;;;;22.45;15.43;;;17.70;99.90;;;;;;12015300;28;20131;-67
2021/09/21 20:12:59;;;;;;;22.00;13.55;;;17.60;99.90;;;;;;12004429;28;20052;-66
2021/09/21 20:24:47;;;;;;;20.55;14.18;;;17.60;99.90;;;;;;11987659;28;20540;-68
2021/09/21 20:30:58;;;;;;;22.48;13.82;;;17.50;99.90;;;;;;11992263;28;20052;-68
